Time;durP1;ratioP1;P1;durP2;ratioP2;P2;SDS_P1;SDS_P2;PMS_P1;PMS_P2;Temp;Humidity;BMP_temperature;BMP_pressure;BME280_temperature;BME280_humidity;BME280_pressure;Samples;Min_cycle;Max_cycle;Signal;HPM_P1;HPM_P2
2021/04/28 00:00:56;;;;;;;15.33;10.93;;;;;;;3.47;55.25;100516.13;1701312;82;21107;-86
2021/04/28 00:03:23;;;;;;;15.17;11.97;;;;;;;3.44;55.57;100518.20;1681031;83;21402;-93
2021/04/28 00:05:50;;;;;;;15.97;12.10;;;;;;;3.37;55.86;100519.25;1684460;83;21231;-91
2021/04/28 00:08:17;;;;;;;16.57;12.83;;;;;;;3.34;55.89;100514.73;1722167;81;21343;-91
2021/04/28 00:10:44;;;;;;;15.87;12.10;;;;;;;3.26;56.03;100524.15;1739541;81;21191;-90
2021/04/28 00:13:16;;;;;;;17.70;13.00;;;;;;;3.23;56.29;100522.27;1690442;82;21619;-87
2021/04/28 00:15:48;;;;;;;20.33;14.50;;;;;;;3.17;56.52;100524.96;1704130;83;21213;-91
2021/04/28 00:18:17;;;;;;;17.67;13.43;;;;;;;3.12;56.55;100519.26;1714856;82;21885;-90
2021/04/28 00:20:46;;;;;;;21.53;13.20;;;;;;;3.09;56.75;100523.01;1696975;82;21219;-90
2021/04/28 00:23:14;;;;;;;21.83;13.63;;;;;;;3.07;56.78;100527.58;1707502;82;21610;-91
2021/04/28 00:25:44;;;;;;;15.50;12.50;;;;;;;3.05;56.94;100527.34;1690536;82;21210;-90
2021/04/28 00:28:12;;;;;;;20.67;13.33;;;;;;;3.00;57.31;100532.20;1703334;82;21191;-90
2021/04/28 00:30:41;;;;;;;20.13;12.87;;;;;;;2.95;57.60;100530.45;1708868;82;21320;-90
2021/04/28 00:33:09;;;;;;;18.27;13.37;;;;;;;2.88;57.77;100525.73;1701303;82;21210;-91
2021/04/28 00:35:37;;;;;;;20.17;13.27;;;;;;;2.39;57.79;100453.64;1719371;82;21228;-88
2021/04/28 00:38:05;;;;;;;20.40;14.03;;;;;;;2.83;57.94;100537.13;1704767;82;21659;-91
2021/04/28 00:40:38;;;;;;;20.60;13.87;;;;;;;2.83;58.05;100533.68;1703868;82;21170;-90
2021/04/28 00:43:08;;;;;;;18.13;14.03;;;;;;;2.80;58.22;100536.56;1705049;82;22191;-91
2021/04/28 00:45:36;;;;;;;17.87;13.40;;;;;;;2.79;58.11;100532.25;1687854;81;21143;-90
2021/04/28 00:48:07;;;;;;;17.47;13.70;;;;;;;2.76;58.10;100534.68;1686353;83;21361;-90
2021/04/28 00:50:44;;;;;;;15.63;12.53;;;;;;;2.74;58.23;100537.93;1677511;84;21233;-91
2021/04/28 00:53:17;;;;;;;21.30;14.37;;;;;;;2.70;58.25;100534.72;1675563;83;21333;-91
2021/04/28 00:55:45;;;;;;;25.20;13.37;;;;;;;2.67;58.32;100538.92;1721698;81;21267;-92
2021/04/28 00:58:13;;;;;;;16.97;11.97;;;;;;;2.69;58.43;100538.80;1703379;82;21217;-90
2021/04/28 01:00:43;;;;;;;14.30;11.47;;;;;;;2.66;58.63;100536.45;1653898;83;21641;-86
2021/04/28 01:03:13;;;;;;;15.30;11.23;;;;;;;2.65;58.68;100540.03;1685960;83;21229;-90
2021/04/28 01:05:41;;;;;;;17.30;12.60;;;;;;;2.60;58.67;100544.39;1684603;83;21199;-91
2021/04/28 01:08:09;;;;;;;19.80;12.63;;;;;;;2.57;58.77;100544.64;1680080;83;21199;-92
2021/04/28 01:10:37;;;;;;;18.60;11.83;;;;;;;2.56;58.87;100538.19;1686100;83;21322;-91
2021/04/28 01:13:06;;;;;;;16.87;11.77;;;;;;;2.50;59.03;100549.58;1694470;82;21653;-93
2021/04/28 01:15:35;;;;;;;17.00;11.53;;;;;;;2.53;59.06;100540.12;1693438;82;21467;-92
2021/04/28 01:18:26;;;;;;;19.40;11.50;;;;;;;2.52;59.20;100538.94;1822022;77;23411;-92
2021/04/28 01:20:54;;;;;;;14.13;11.43;;;;;;;2.47;59.16;100538.52;1814135;78;21610;-89
2021/04/28 01:23:22;;;;;;;18.27;11.30;;;;;;;2.45;59.35;100541.27;1779240;77;21043;-91
2021/04/28 01:25:51;;;;;;;16.03;11.43;;;;;;;2.44;59.29;100539.59;1755786;78;21197;-91
2021/04/28 01:28:21;;;;;;;15.70;11.07;;;;;;;2.39;59.35;100536.50;1750659;81;21162;-92
2021/04/28 01:31:10;;;;;;;19.03;11.27;;;;;;;2.34;59.43;100534.28;1722039;81;22114;-90
2021/04/28 01:33:44;;;;;;;17.67;10.93;;;;;;;2.29;59.91;100538.27;1757542;81;21085;-91
2021/04/28 01:36:20;;;;;;;14.53;11.28;;;;;;;2.24;60.22;100534.72;1734184;80;21187;-92
2021/04/28 01:38:52;;;;;;;14.40;11.10;;;;;;;2.19;60.24;100538.21;1775573;79;21160;-89
2021/04/28 01:41:22;;;;;;;16.00;11.80;;;;;;;2.19;60.19;100536.89;1776695;79;21314;-90
2021/04/28 01:43:52;;;;;;;14.57;10.93;;;;;;;2.17;60.19;100539.28;1752789;80;21312;-91
2021/04/28 01:46:19;;;;;;;19.00;10.17;;;;;;;2.15;60.15;100536.81;1749337;79;21042;-92
2021/04/28 01:48:48;;;;;;;15.93;10.13;;;;;;;2.16;60.07;100540.27;1750940;79;21171;-87
2021/04/28 01:51:17;;;;;;;13.70;11.03;;;;;;;2.17;60.12;100541.91;1781931;79;21199;-90
2021/04/28 01:53:45;;;;;;;14.33;11.17;;;;;;;2.21;59.99;100540.72;1764134;79;22164;-92
2021/04/28 01:56:14;;;;;;;15.27;10.47;;;;;;;2.19;60.15;100541.33;1746753;79;21019;-92
2021/04/28 01:58:44;;;;;;;16.27;11.23;;;;;;;2.17;60.19;100545.40;1764892;79;21179;-93
2021/04/28 02:01:14;;;;;;;15.77;10.50;;;;;;;2.12;60.21;100543.14;1742284;79;21097;-92
2021/04/28 02:03:43;;;;;;;14.43;10.37;;;;;;;2.11;60.03;100540.63;1729201;82;21187;-92
2021/04/28 02:06:11;;;;;;;15.03;10.40;;;;;;;2.06;60.16;100543.66;1724310;82;21343;-95
2021/04/28 02:08:40;;;;;;;15.03;10.07;;;;;;;2.07;60.14;100545.34;1732400;81;21815;-92
2021/04/28 02:11:08;;;;;;;14.53;11.03;;;;;;;2.03;60.30;100540.45;1704076;82;21231;-92
2021/04/28 02:13:42;;;;;;;12.33;9.27;;;;;;;2.04;60.33;100542.13;1716961;81;21176;-92
2021/04/28 02:16:29;;;;;;;13.80;9.80;;;;;;;2.03;60.41;100541.77;1714858;81;21336;-89
2021/04/28 02:19:04;;;;;;;15.10;9.53;;;;;;;1.99;60.45;100546.93;1711998;83;21157;-92
2021/04/28 02:21:33;;;;;;;12.90;9.53;;;;;;;1.93;60.69;100545.64;1707072;81;21156;-88
2021/04/28 02:24:28;;;;;;;16.37;9.53;;;;;;;1.90;60.63;100549.37;1752164;79;22971;-91
2021/04/28 02:26:58;;;;;;;10.63;9.47;;;;;;;1.84;60.66;100550.34;1746104;79;21180;-91
2021/04/28 02:29:26;;;;;;;12.17;9.30;;;;;;;1.87;60.52;100552.24;1743158;79;21168;-92
2021/04/28 02:31:54;;;;;;;21.83;10.10;;;;;;;1.89;60.70;100554.75;1762189;79;21751;-90
2021/04/28 02:34:23;;;;;;;11.30;9.97;;;;;;;1.93;60.59;100558.80;1754334;79;21346;-94
2021/04/28 02:36:57;;;;;;;14.93;9.47;;;;;;;1.91;60.55;100559.40;1752076;79;21339;-91
2021/04/28 02:39:54;;;;;;;14.80;10.00;;;;;;;1.95;60.42;100556.38;1778756;79;21295;-93
2021/04/28 02:42:23;;;;;;;15.17;9.47;;;;;;;1.98;60.52;100555.31;1770465;79;21208;-92
2021/04/28 02:44:51;;;;;;;14.17;9.23;;;;;;;2.00;60.54;100561.73;1745744;81;21242;-91
2021/04/28 02:47:22;;;;;;;14.47;10.57;;;;;;;1.98;60.58;100564.51;1734256;81;21581;-90
2021/04/28 02:49:53;;;;;;;15.73;10.50;;;;;;;2.00;60.55;100569.16;1733895;81;21201;-92
2021/04/28 02:52:45;;;;;;;12.67;10.37;;;;;;;1.99;60.52;100567.48;1704001;80;21343;-92
2021/04/28 02:55:12;;;;;;;13.47;10.43;;;;;;;2.02;60.51;100570.35;1727753;81;21648;-92
2021/04/28 02:57:42;;;;;;;15.43;10.30;;;;;;;2.07;60.44;100570.78;1706482;82;21210;-91
2021/04/28 03:00:12;;;;;;;14.97;11.50;;;;;;;2.09;60.29;100567.54;1737622;81;21205;-92
2021/04/28 03:02:40;;;;;;;17.93;11.13;;;;;;;2.14;60.20;100568.83;1703888;82;21198;-92
2021/04/28 03:05:15;;;;;;;15.63;11.40;;;;;;;2.22;60.38;100567.36;1767459;80;21326;-90
2021/04/28 03:08:01;;;;;;;16.13;11.10;;;;;;;2.50;60.57;100568.00;1745464;81;21201;-91
2021/04/28 03:10:28;;;;;;;15.97;11.30;;;;;;;3.02;59.88;100561.88;1768373;80;21630;-91
2021/04/28 03:12:55;;;;;;;23.80;13.17;;;;;;;3.51;58.83;100566.76;1775033;80;21153;-87
2021/04/28 03:15:25;;;;;;;23.30;14.07;;;;;;;4.01;57.70;100569.74;1761054;80;21178;-91
2021/04/28 03:17:54;;;;;;;21.80;13.27;;;;;;;4.55;56.35;100572.72;1745946;80;21183;-91
2021/04/28 03:20:26;;;;;;;17.90;13.60;;;;;;;5.05;55.05;100571.08;1752644;80;21181;-91
2021/04/28 03:22:53;;;;;;;23.00;16.70;;;;;;;5.57;53.80;100567.33;1736965;80;21085;-87
2021/04/28 03:25:20;;;;;;;18.63;13.73;;;;;;;6.07;52.70;100577.09;1736283;81;21322;-86
2021/04/28 03:27:49;;;;;;;23.33;16.07;;;;;;;6.54;51.64;100571.47;1732014;82;22177;-86
2021/04/28 03:30:17;;;;;;;18.33;14.93;;;;;;;7.02;50.71;100571.36;1744192;80;21198;-87
2021/04/28 03:32:45;;;;;;;20.97;16.53;;;;;;;7.45;49.43;100573.50;1731355;81;21167;-85
2021/04/28 03:35:19;;;;;;;26.53;17.93;;;;;;;7.88;48.32;100571.58;1759770;80;21575;-87
2021/04/28 03:37:48;;;;;;;22.30;16.70;;;;;;;8.29;47.52;100579.55;1725787;81;21135;-86
2021/04/28 03:40:15;;;;;;;23.07;15.97;;;;;;;8.70;46.51;100581.31;1744315;80;22352;-87
2021/04/28 03:42:43;;;;;;;24.10;16.07;;;;;;;9.12;45.46;100581.02;1736321;81;21517;-88
2021/04/28 03:45:11;;;;;;;25.17;17.50;;;;;;;9.52;44.92;100583.14;1761753;80;21107;-87
2021/04/28 03:47:41;;;;;;;24.20;15.43;;;;;;;9.99;43.71;100590.65;1748607;81;21289;-87
2021/04/28 03:50:10;;;;;;;23.47;16.73;;;;;;;10.38;43.03;100588.84;1734546;82;21315;-88
2021/04/28 03:52:39;;;;;;;26.03;17.07;;;;;;;10.71;41.92;100588.84;1713487;82;21236;-86
2021/04/28 03:55:14;;;;;;;22.93;17.20;;;;;;;11.07;40.83;100596.10;1719505;82;21310;-88
2021/04/28 03:57:42;;;;;;;27.37;16.60;;;;;;;11.48;40.50;100594.77;1750411;80;21160;-89
2021/04/28 04:00:11;;;;;;;24.52;16.37;;;;;;;11.84;39.29;100590.73;1735991;81;21179;-90
2021/04/28 04:02:50;;;;;;;22.93;15.43;;;;;;;12.25;38.57;100587.44;1769572;79;23076;-91
2021/04/28 04:05:22;;;;;;;23.12;16.10;;;;;;;12.51;37.95;100591.83;1674460;82;21877;-92
2021/04/28 04:08:04;;;;;;;22.15;15.38;;;;;;;12.90;37.20;100593.12;1803689;77;22982;-91
2021/04/28 04:10:40;;;;;;;16.35;11.10;;;;;;;13.18;36.33;100601.08;1764985;78;21754;-89
2021/04/28 04:13:09;;;;;;;8.90;7.72;;;;;;;13.48;34.01;100605.66;1758253;80;21249;-89
2021/04/28 04:15:37;;;;;;;13.75;10.38;;;;;;;13.58;32.07;100611.97;1748742;80;22099;-90
2021/04/28 04:18:05;;;;;;;10.88;7.72;;;;;;;13.60;32.89;100609.95;1736612;80;21314;-93
2021/04/28 04:20:52;;;;;;;10.40;6.37;;;;;;;13.80;30.53;100614.81;1744109;80;21141;-89
2021/04/28 04:23:24;;;;;;;11.60;5.90;;;;;;;13.75;29.00;100613.28;1772223;80;21291;-88
2021/04/28 04:26:15;;;;;;;7.83;7.00;;;;;;;13.71;29.11;100616.05;1929590;73;22991;-83
2021/04/28 04:29:01;;;;;;;7.35;6.33;;;;;;;13.66;28.61;100617.16;1883245;75;21110;-84
2021/04/28 04:31:51;;;;;;;7.92;6.70;;;;;;;13.58;29.06;100620.00;1773075;79;22949;-85
2021/04/28 04:34:24;;;;;;;6.87;6.22;;;;;;;13.74;28.95;100623.67;1723419;82;21056;-86
2021/04/28 04:37:10;;;;;;;7.80;6.28;;;;;;;13.85;28.73;100624.13;1712714;82;21203;-85
2021/04/28 04:39:56;;;;;;;7.10;6.40;;;;;;;13.85;28.95;100622.78;1725101;82;21168;-85
2021/04/28 04:42:32;;;;;;;7.65;6.90;;;;;;;14.11;29.13;100630.02;1724266;82;21777;-82
2021/04/28 04:45:00;;;;;;;8.30;6.80;;;;;;;14.48;28.44;100630.45;1711573;80;21113;-84
2021/04/28 04:47:27;;;;;;;7.42;6.67;;;;;;;14.77;28.51;100635.42;1650207;85;21350;-85
2021/04/28 04:49:54;;;;;;;8.60;7.40;;;;;;;15.07;27.70;100634.95;1641836;85;21191;-82
2021/04/28 04:52:21;;;;;;;8.95;6.92;;;;;;;15.22;27.36;100636.05;1618672;86;21415;-83
2021/04/28 04:54:47;;;;;;;7.90;6.60;;;;;;;15.11;27.39;100639.39;1682772;83;21858;-83
2021/04/28 04:57:14;;;;;;;7.97;6.37;;;;;;;14.94;27.81;100643.04;1668051;83;22183;-80
2021/04/28 04:59:41;;;;;;;8.18;7.08;;;;;;;14.79;27.96;100639.24;1666719;83;21209;-82
2021/04/28 05:02:08;;;;;;;7.50;6.83;;;;;;;14.73;27.91;100648.10;1672795;83;21582;-81
2021/04/28 05:04:35;;;;;;;8.20;6.60;;;;;;;14.69;27.96;100648.22;1662208;84;21207;-80
2021/04/28 05:07:02;;;;;;;8.25;7.22;;;;;;;14.56;28.31;100649.86;1674998;84;21326;-80
2021/04/28 05:09:30;;;;;;;8.28;6.53;;;;;;;14.47;28.38;100647.07;1671098;84;21857;-84
2021/04/28 05:11:57;;;;;;;6.67;6.00;;;;;;;14.19;29.12;100648.60;1668896;83;21129;-83
2021/04/28 05:14:24;;;;;;;7.35;6.55;;;;;;;14.35;28.91;100651.39;1665512;85;21223;-83
2021/04/28 05:16:51;;;;;;;6.70;6.10;;;;;;;14.33;29.09;100653.45;1659188;85;21209;-79
2021/04/28 05:19:19;;;;;;;10.95;6.03;;;;;;;14.31;29.46;100656.33;1656836;84;21200;-82
2021/04/28 05:21:46;;;;;;;6.58;5.62;;;;;;;14.33;28.61;100657.47;1665886;85;21216;-84
2021/04/28 05:24:13;;;;;;;6.22;5.60;;;;;;;14.09;29.03;100662.90;1639392;85;21289;-85
2021/04/28 05:27:01;;;;;;;6.22;4.30;;;;;;;13.62;29.42;100660.94;1638991;85;21192;-83
2021/04/28 05:29:27;;;;;;;5.75;3.27;;;;;;;13.11;29.81;100669.80;1640527;85;21187;-85
2021/04/28 05:31:54;;;;;;;6.08;4.42;;;;;;;13.03;29.91;100670.79;1632158;86;21550;-83
2021/04/28 05:34:25;;;;;;;5.47;4.97;;;;;;;13.22;30.50;100674.60;1624865;86;21269;-83
2021/04/28 05:36:53;;;;;;;5.05;4.42;;;;;;;13.43;29.82;100672.40;1643679;87;21202;-82
2021/04/28 05:39:20;;;;;;;1.60;1.40;;;;;;;13.50;29.86;100679.11;1636276;86;21656;-85
2021/04/28 05:41:47;;;;;;;1.85;1.57;;;;;;;13.66;28.37;100685.47;1637046;85;21222;-83
2021/04/28 05:44:14;;;;;;;3.08;1.55;;;;;;;13.70;28.50;100686.72;1641727;85;21230;-89
2021/04/28 05:46:47;;;;;;;2.45;2.25;;;;;;;13.75;28.64;100684.77;1631455;86;21229;-92
2021/04/28 05:49:24;;;;;;;1.75;1.30;;;;;;;13.73;28.58;100685.48;1596022;87;21225;-95
2021/04/28 05:51:51;;;;;;;1.90;1.60;;;;;;;13.69;28.25;100695.77;1615738;87;21270;-90
2021/04/28 05:54:18;;;;;;;3.17;1.57;;;;;;;13.48;28.60;100689.20;1617728;88;21231;-89
2021/04/28 05:56:46;;;;;;;2.60;1.42;;;;;;;13.44;28.88;100696.27;1613376;87;21334;-89
2021/04/28 05:59:16;;;;;;;2.20;1.47;;;;;;;13.63;28.26;100697.91;1602533;88;21364;-90
2021/04/28 06:01:44;;;;;;;1.47;1.37;;;;;;;13.92;27.47;100696.80;1584657;88;21125;-90
2021/04/28 06:04:11;;;;;;;2.45;1.20;;;;;;;13.95;27.64;100701.73;1628353;87;21180;-91
2021/04/28 06:06:42;;;;;;;5.00;1.82;;;;;;;13.83;28.49;100702.84;1628925;87;21356;-87
2021/04/28 06:09:07;;;;;;;1.85;1.00;;;;;;;14.10;27.66;100702.91;1624964;86;22015;-90
2021/04/28 06:11:35;;;;;;;0.98;0.90;;;;;;;14.34;27.21;100697.50;1623590;85;21102;-93
2021/04/28 06:14:02;;;;;;;1.10;0.95;;;;;;;14.42;26.27;100695.13;1642398;86;21645;-90
2021/04/28 06:16:31;;;;;;;3.60;1.15;;;;;;;14.29;25.96;100701.81;1643879;86;21233;-82
2021/04/28 06:18:58;;;;;;;1.37;0.93;;;;;;;14.02;26.49;100709.28;1573134;90;21260;-86
2021/04/28 06:21:25;;;;;;;2.12;0.90;;;;;;;13.98;26.98;100712.58;1595508;88;21248;-88
2021/04/28 06:26:30;;;;;;;1.72;0.98;;;;;;;14.63;26.65;100701.37;1817016;77;22919;-83
2021/04/28 06:28:57;;;;;;;4.22;1.05;;;;;;;14.67;26.10;100707.97;1823822;77;21160;-83
2021/04/28 06:31:26;;;;;;;2.27;0.70;;;;;;;14.54;25.93;100714.11;1824475;78;21184;-81
2021/04/28 06:33:55;;;;;;;1.15;0.90;;;;;;;14.27;26.07;100710.58;1766631;78;21079;-83
2021/04/28 06:36:22;;;;;;;3.05;0.98;;;;;;;13.83;26.80;100701.50;1699768;83;21337;-84
2021/04/28 06:38:50;;;;;;;1.80;0.90;;;;;;;13.50;28.12;100709.91;1715419;83;21208;-89
2021/04/28 06:41:17;;;;;;;9.70;1.10;;;;;;;13.69;27.22;100704.32;1697905;83;21211;-82
2021/04/28 06:43:44;;;;;;;1.60;0.93;;;;;;;13.58;27.31;100685.63;1700729;83;21199;-81
2021/04/28 06:46:13;;;;;;;3.50;1.12;;;;;;;13.80;27.01;100717.96;1714883;81;21037;-85
2021/04/28 06:48:40;;;;;;;1.85;1.22;;;;;;;13.89;27.19;100706.56;1731330;81;21784;-85
2021/04/28 06:51:07;;;;;;;2.10;1.10;;;;;;;14.17;26.69;100708.30;1726760;81;21184;-85
2021/04/28 06:53:34;;;;;;;2.72;1.67;;;;;;;14.46;26.71;100715.14;1728988;81;21191;-83
2021/04/28 06:56:05;;;;;;;4.53;2.00;;;;;;;14.72;26.06;100705.50;1723051;81;21104;-83
2021/04/28 06:58:33;;;;;;;2.12;1.15;;;;;;;14.69;26.09;100711.27;1732261;81;21298;-90
2021/04/28 07:01:00;;;;;;;2.80;1.87;;;;;;;14.61;26.28;100710.95;1717460;81;21689;-85
2021/04/28 07:03:29;;;;;;;2.83;1.42;;;;;;;14.75;25.96;100713.97;1697078;83;21228;-81
2021/04/28 07:05:57;;;;;;;1.77;1.67;;;;;;;14.80;25.83;100711.98;1690457;83;21342;-85
2021/04/28 07:08:24;;;;;;;5.35;2.00;;;;;;;14.86;25.57;100719.23;1661939;84;21254;-80
2021/04/28 07:10:52;;;;;;;2.58;1.87;;;;;;;14.97;25.62;100720.44;1655171;85;21756;-80
2021/04/28 07:13:21;;;;;;;3.62;1.98;;;;;;;14.81;25.72;100716.86;1654884;84;21303;-78
2021/04/28 07:15:58;;;;;;;3.20;1.80;;;;;;;14.30;26.40;100714.21;1794132;77;22634;-79
2021/04/28 07:18:25;;;;;;;2.50;1.60;;;;;;;13.83;26.79;100725.61;1779789;80;21182;-80
2021/04/28 07:20:52;;;;;;;3.70;1.77;;;;;;;13.50;27.29;100731.33;1695870;82;21176;-80
2021/04/28 07:23:19;;;;;;;2.02;1.82;;;;;;;13.10;27.11;100728.38;1677661;83;21111;-79
2021/04/28 07:25:46;;;;;;;2.15;1.95;;;;;;;12.76;27.98;100730.80;1626452;87;21829;-78
2021/04/28 07:28:14;;;;;;;5.10;2.10;;;;;;;12.56;28.62;100723.92;1633392;87;21345;-81
2021/04/28 07:30:42;;;;;;;5.37;2.47;;;;;;;12.41;28.92;100723.16;1646798;86;21183;-79
2021/04/28 07:33:09;;;;;;;5.80;2.30;;;;;;;12.32;28.91;100725.64;1629130;87;21426;-81
2021/04/28 07:35:36;;;;;;;5.45;2.17;;;;;;;12.19;29.09;100720.50;1641841;86;21248;-79
2021/04/28 07:38:03;;;;;;;3.00;1.67;;;;;;;11.98;29.51;100718.63;1647498;86;21351;-79
2021/04/28 07:40:32;;;;;;;2.80;1.92;;;;;;;11.76;29.37;100720.38;1646178;86;21217;-79
2021/04/28 07:42:59;;;;;;;10.55;2.40;;;;;;;11.77;29.40;100723.39;1640827;86;22317;-80
2021/04/28 07:45:26;;;;;;;3.95;1.50;;;;;;;11.84;28.74;100726.13;1647444;86;21106;-77
2021/04/28 07:47:53;;;;;;;4.75;1.60;;;;;;;11.85;28.88;100723.27;1642342;86;21185;-79
2021/04/28 07:50:21;;;;;;;7.08;1.65;;;;;;;11.79;28.74;100721.36;1644690;86;22293;-79
2021/04/28 07:52:50;;;;;;;4.87;2.12;;;;;;;11.64;29.73;100725.86;1670767;84;21353;-78
2021/04/28 07:55:17;;;;;;;1.98;1.77;;;;;;;11.51;28.80;100721.20;1641409;85;21235;-80
2021/04/28 07:57:45;;;;;;;6.00;1.30;;;;;;;11.35;29.29;100727.54;1618053;87;21155;-79
2021/04/28 08:00:14;;;;;;;2.87;1.47;;;;;;;11.34;29.87;100727.72;1620246;87;21208;-78
2021/04/28 08:02:43;;;;;;;3.80;1.27;;;;;;;11.38;29.43;100725.03;1643835;86;21179;-77
2021/04/28 08:05:12;;;;;;;3.57;2.40;;;;;;;11.37;30.26;100720.17;1614324;86;21200;-82
2021/04/28 08:07:39;;;;;;;2.37;1.83;;;;;;;11.37;30.03;100722.84;1622659;86;21209;-83
2021/04/28 08:10:09;;;;;;;4.08;1.70;;;;;;;11.33;29.75;100717.56;1645236;86;21219;-81
2021/04/28 08:12:37;;;;;;;3.40;1.63;;;;;;;11.36;29.99;100721.69;1652646;84;21174;-83
2021/04/28 08:15:07;;;;;;;5.20;1.77;;;;;;;11.45;29.88;100725.92;1644180;85;21194;-81
2021/04/28 08:17:34;;;;;;;1.70;1.60;;;;;;;11.47;29.71;100723.89;1650065;86;21228;-81
2021/04/28 08:20:04;;;;;;;2.80;1.60;;;;;;;11.45;28.97;100724.11;1598290;88;21229;-79
2021/04/28 08:22:33;;;;;;;3.03;2.13;;;;;;;11.38;29.64;100725.03;1589793;88;21319;-90
2021/04/28 08:25:05;;;;;;;5.87;1.57;;;;;;;11.33;29.84;100720.23;1605642;88;21961;-82
2021/04/28 08:27:32;;;;;;;3.27;1.77;;;;;;;11.29;29.38;100719.77;1567320;90;21232;-80
2021/04/28 08:29:59;;;;;;;5.20;2.13;;;;;;;11.20;29.91;100714.70;1618162;87;21198;-79
2021/04/28 08:32:26;;;;;;;1.60;1.50;;;;;;;11.19;29.73;100723.70;1614392;87;21551;-82
2021/04/28 08:34:53;;;;;;;3.27;1.40;;;;;;;11.18;29.37;100718.06;1617738;86;21260;-82
2021/04/28 08:37:22;;;;;;;2.33;2.07;;;;;;;11.12;29.40;100722.28;1597755;90;21706;-82
2021/04/28 08:39:49;;;;;;;2.57;1.40;;;;;;;10.85;29.47;100728.55;1617975;87;21191;-81
2021/04/28 08:42:17;;;;;;;3.23;1.50;;;;;;;10.63;29.81;100716.89;1596095;88;21187;-80
2021/04/28 08:44:45;;;;;;;4.23;2.00;;;;;;;10.58;30.36;100715.78;1615778;86;21148;-83
2021/04/28 08:47:14;;;;;;;1.73;1.63;;;;;;;10.59;30.15;100722.78;1613608;88;21180;-80
2021/04/28 08:49:42;;;;;;;5.80;1.50;;;;;;;10.65;30.33;100718.87;1618028;87;21381;-82
2021/04/28 08:52:09;;;;;;;2.30;1.00;;;;;;;10.80;30.02;100716.77;1617413;88;21224;-82
2021/04/28 08:54:38;;;;;;;2.43;1.50;;;;;;;10.96;29.42;100715.26;1616919;88;21178;-80
2021/04/28 08:57:05;;;;;;;3.80;1.70;;;;;;;11.05;29.20;100710.17;1617194;86;21123;-84
2021/04/28 08:59:32;;;;;;;2.50;0.97;;;;;;;11.08;29.94;100705.81;1617095;87;21334;-87
2021/04/28 09:02:26;;;;;;;4.50;1.57;;;;;;;11.21;28.94;100704.37;1596904;87;21125;-84
2021/04/28 09:05:11;;;;;;;3.03;1.43;;;;;;;11.31;28.97;100706.24;1585595;89;21232;-82
2021/04/28 09:07:41;;;;;;;1.30;1.20;;;;;;;11.43;29.39;100699.44;1584227;88;21784;-85
2021/04/28 09:10:19;;;;;;;1.60;1.20;;;;;;;11.59;28.57;100705.59;1573561;90;21212;-79
2021/04/28 09:13:03;;;;;;;5.90;3.07;;;;;;;11.65;28.32;100702.98;1608198;87;21417;-79
2021/04/28 09:15:41;;;;;;;2.23;1.50;;;;;;;11.66;27.96;100701.98;1612038;87;21626;-84
2021/04/28 09:18:12;;;;;;;1.82;1.20;;;;;;;11.67;27.91;100695.61;1614626;87;21639;-83
2021/04/28 09:20:57;;;;;;;1.37;1.27;;;;;;;11.73;28.39;100688.70;1793320;78;28455;-82
2021/04/28 09:23:39;;;;;;;3.45;1.45;;;;;;;11.97;28.38;100690.76;1679455;81;21064;-83
2021/04/28 09:26:25;;;;;;;1.52;1.32;;;;;;;12.16;27.34;100694.14;1656586;85;21219;-84
2021/04/28 09:29:17;;;;;;;1.20;1.10;;;;;;;12.03;27.67;100684.14;1629154;86;21167;-83
2021/04/28 09:32:06;;;;;;;1.10;1.10;;;;;;;11.99;27.78;100682.87;1649838;85;21196;-82
2021/04/28 09:34:42;;;;;;;2.45;1.27;;;;;;;12.06;27.85;100690.97;1645272;84;21416;-82
2021/04/28 09:37:16;;;;;;;2.10;1.90;;;;;;;12.10;28.01;100693.58;1646735;85;21191;-83
2021/04/28 09:39:50;;;;;;;3.05;1.00;;;;;;;12.14;27.41;100690.83;1678644;84;21164;-83
2021/04/28 09:42:20;;;;;;;2.33;1.12;;;;;;;12.17;27.59;100690.47;1655190;85;21187;-83
2021/04/28 09:44:49;;;;;;;1.00;0.80;;;;;;;12.24;27.45;100679.34;1667923;84;21089;-82
2021/04/28 09:47:19;;;;;;;5.10;1.00;;;;;;;12.34;27.38;100677.67;1694248;83;21325;-82
2021/04/28 09:49:59;;;;;;;0.90;0.85;;;;;;;12.43;27.30;100683.70;1694715;83;21656;-83
2021/04/28 09:52:36;;;;;;;3.22;1.45;;;;;;;12.48;27.82;100675.94;1678063;84;21729;-83
2021/04/28 09:55:15;;;;;;;3.75;0.82;;;;;;;12.52;27.04;100679.88;1693956;83;21160;-83
2021/04/28 09:57:46;;;;;;;;;;;;;;;12.45;27.27;100672.30;1659560;85;21603;-83
2021/04/28 10:00:29;;;;;;;0.95;0.95;;;;;;;12.42;27.41;100676.72;1687849;84;20403;-83
2021/04/28 10:03:00;;;;;;;2.80;1.12;;;;;;;12.35;27.16;100673.97;1621455;87;21200;-83
2021/04/28 10:05:38;;;;;;;2.42;0.95;;;;;;;12.33;27.66;100674.67;1667292;84;21303;-83
2021/04/28 10:08:19;;;;;;;2.25;0.53;;;;;;;12.41;27.00;100670.55;1644468;85;21179;-84
2021/04/28 10:10:52;;;;;;;1.87;0.80;;;;;;;12.41;26.40;100667.03;1667703;84;21192;-83
2021/04/28 10:13:20;;;;;;;1.22;0.80;;;;;;;12.36;26.30;100654.77;1693463;83;21097;-83
2021/04/28 10:15:47;;;;;;;2.90;0.50;;;;;;;12.28;25.38;100673.08;1678290;84;21657;-82
2021/04/28 10:18:18;;;;;;;1.25;0.93;;;;;;;12.27;25.43;100657.55;1692926;83;21208;-83
2021/04/28 10:20:46;;;;;;;0.57;0.45;;;;;;;12.32;25.76;100665.50;1655100;85;21218;-83
2021/04/28 10:23:17;;;;;;;1.52;1.35;;;;;;;12.40;25.94;100664.88;1662407;84;21105;-83
2021/04/28 10:25:49;;;;;;;1.35;0.47;;;;;;;12.44;26.02;100659.97;1668366;84;21172;-84
2021/04/28 10:28:20;;;;;;;1.55;1.02;;;;;;;12.51;26.16;100651.50;1638325;86;21157;-82
2021/04/28 10:30:49;;;;;;;1.82;1.05;;;;;;;12.63;26.44;100654.47;1669767;84;21642;-84
2021/04/28 10:33:24;;;;;;;1.45;1.35;;;;;;;12.68;26.49;100641.83;1655142;84;21189;-82
2021/04/28 10:35:53;;;;;;;2.47;1.17;;;;;;;12.71;26.81;100644.13;1681991;84;21174;-83
2021/04/28 10:38:22;;;;;;;1.45;0.78;;;;;;;12.79;27.31;100649.32;1687274;84;21664;-82
2021/04/28 10:40:54;;;;;;;1.62;1.00;;;;;;;12.86;27.42;100647.52;1699775;81;21125;-85
2021/04/28 10:43:36;;;;;;;5.28;1.45;;;;;;;12.94;26.77;100643.38;1683611;84;21172;-88
2021/04/28 10:46:21;;;;;;;4.35;1.82;;;;;;;12.95;26.58;100639.66;1682246;84;21105;-88
2021/04/28 10:48:52;;;;;;;3.72;1.25;;;;;;;12.91;26.69;100643.76;1664632;84;21194;-88
2021/04/28 10:51:49;;;;;;;;;;;;;;;;;;;;;
2021/04/28 10:59:29;;;;;;;2.33;2.13;;;;;;;12.62;27.82;100634.92;1804504;77;24349;-92
2021/04/28 11:05:09;;;;;;;3.20;2.05;;;;;;;12.58;28.04;100630.99;1650868;85;21713;-94
2021/04/28 11:07:44;;;;;;;1.72;1.62;;;;;;;12.63;27.80;100637.08;1764830;79;23050;-88
2021/04/28 11:10:28;;;;;;;1.72;1.60;;;;;;;12.53;27.60;100626.73;1753991;81;22139;-95
2021/04/28 11:13:18;;;;;;;3.33;1.67;;;;;;;12.50;27.67;100633.79;1727889;81;21088;-94
2021/04/28 11:19:35;;;;;;;3.27;2.08;;;;;;;12.43;27.72;100634.24;1669186;84;20600;-91
2021/04/28 11:28:36;;;;;;;2.10;1.90;;;;;;;12.37;27.83;100613.12;1592835;88;21817;-90
2021/04/28 11:32:01;;;;;;;;;;;;;;;;;;;;;
2021/04/28 11:58:04;;;;;;;3.05;1.42;;;;;;;12.37;27.73;100602.95;1694422;81;21408;-94
2021/04/28 12:00:37;;;;;;;3.30;1.30;;;;;;;12.50;27.72;100590.19;1812081;76;23003;-91
2021/04/28 12:03:05;;;;;;;2.10;1.17;;;;;;;12.55;27.80;100601.95;1818307;76;21124;-93
2021/04/28 12:05:32;;;;;;;7.83;1.47;;;;;;;12.65;27.69;100603.77;1821506;78;21147;-89
2021/04/28 12:08:09;;;;;;;1.90;1.22;;;;;;;12.73;26.98;100589.41;1795997;78;21169;-93
2021/04/28 12:22:12;;;;;;;1.97;1.83;;;;;;;12.74;26.94;100568.34;1799475;77;23125;-86
2021/04/28 12:24:45;;;;;;;12.68;1.87;;;;;;;12.66;27.09;100568.51;1717102;82;21390;-87
2021/04/28 12:27:25;;;;;;;1.52;1.42;;;;;;;12.61;26.88;100558.91;1724345;82;21215;-87
2021/04/28 12:30:04;;;;;;;1.90;1.17;;;;;;;12.57;27.34;100567.01;1722650;82;21204;-87
2021/04/28 12:32:45;;;;;;;1.70;0.90;;;;;;;12.61;27.63;100570.42;1735255;81;21206;-86
2021/04/28 12:35:24;;;;;;;1.60;1.50;;;;;;;12.67;27.10;100566.13;1723837;79;21138;-85
2021/04/28 12:41:07;;;;;;;1.80;1.70;;;;;;;12.64;27.26;100528.59;1798139;78;23070;-89
2021/04/28 12:43:38;;;;;;;3.97;1.47;;;;;;;12.76;26.98;100557.45;1751204;79;21318;-88